Tiempo atmosférico en la estación meteorológica de San Fernando, Cádiz (28 m.)



Fecha
DESCASC
Temp. máxima en grados centígrados (hora)
DESCASC
Temp. mínima en grados centígrados (hora)
DESCASC
Temp. media en grados centígrados
DESCASC
Racha de viento máxima en m/sg (hora)
DESCASC
Velocidad máxima media en intervalos de 10 minutos(hora)
DESCASC
Precipitaciones diarias en mm
DESCASC
Precipitaciones de 00:00 a 06:00 en mm
DESCASC
Precipitaciones de 06:00 a 12:00 en mm
DESCASC
Precipitaciones de 12:00 a 18:00 en mm
DESCASC
Precipitaciones de 18:00 a 24:00 en mm
DESCASC
10-11-2019 17.4 (15:40) 13.9 (00:00) 15.6 15.56 (16:00) 9.44 (16:10) 0.6 0.5 0 0 0.1
09-11-2019 16.8 (23:40) 9.4 (00:00) 13.1 7.22 (23:50) 5 (23:50) 0 0 0 0 0
08-11-2019 16.5 (16:40) 13.2 (00:00) 14.8 11.11 (13:10) 6.94 (13:00) 0 0 0 0 0
07-11-2019 18.6 (11:00) 12.7 (00:00) 15.7 11.94 (19:30) 7.22 (14:10) 4.7 0 2 2.7 0
06-11-2019 18.5 (16:10) 13.3 (00:00) 15.9 9.44 (00:30) 5.83 (20:30) 0 0 0 0 0
05-11-2019 19.4 (16:40) 15.4 (00:00) 17.4 12.22 (03:20) 6.94 (01:30) 0.4 0.4 0 0 0
04-11-2019 20.9 (15:40) 18.4 (00:00) 19.6 9.17 (23:10) 6.11 (23:20) 0 0 0 0 0
03-11-2019 21.3 (13:50) 18.6 (00:00) 19.9 12.22 (15:10) 8.33 (14:10) 0.6 0.6 0 0 0
02-11-2019 22.5 (14:10) 19.2 (00:00) 20.9 10.56 (16:40) 7.22 (16:40) 3 2.5 0.4 0.1 0
01-11-2019 22.5 (14:20) 19.5 (00:00) 21 9.17 (16:50) 5.83 (15:10) 0 0 0 0 0
31-10-2019 22.1 (17:00) 18.9 (07:50) 20.5 6.94 (18:50) 4.44 (17:00) 0 0 0 0 0
30-10-2019 22 (14:00) 17.8 (00:00) 19.9 5.83 (14:40) 3.89 (14:40) 0 0 0 0 0
29-10-2019 22 (14:00) 17.2 (00:00) 19.6 6.11 (16:00) 3.89 (16:00) 0 0 0 0 0
28-10-2019 23 (16:10) 16.3 (00:00) 19.6 6.11 (11:30) 3.33 (11:40) 0 0 0 0 0
27-10-2019 25.2 (12:00) 16.6 (00:00) 20.9 10.56 (14:30) 5.56 (14:30) 0 0 0 0 0
26-10-2019 30.2 (14:40) 16.6 (00:00) 23.4 8.33 (12:10) 3.89 (02:40) 0 0 0 0 0
25-10-2019 27.7 (16:10) 13.1 (00:00) 20.4 10.28 (13:40) 4.72 (16:10) 0 0 0 0 0
24-10-2019 18.9 (17:10) 14.3 (00:00) 16.6 9.44 (01:10) 6.11 (02:50) 0 0 0 0 0
23-10-2019 19.6 (16:50) 14.7 (00:00) 17.2 13.89 (20:10) 8.61 (19:30) 0 0 0 0 0
22-10-2019 19.2 (18:20) 11.6 (00:00) 15.4 13.33 (13:00) 6.94 (13:40) 0.2 0 0 0.2 0
21-10-2019 19.8 (15:10) 12.6 (00:00) 16.2 7.78 (17:50) 4.72 (17:00) 0 0 0 0 0
20-10-2019 19.5 (17:40) 15.9 (00:00) 17.7 10 (01:10) 6.39 (01:10) 0.4 0.4 0 0 0
19-10-2019 23.8 (17:40) 17.7 (00:00) 20.8 13.61 (21:20) 7.78 (22:30) 6.9 0 0 2.5 4.4
18-10-2019 23.6 (15:30) 16.3 (00:00) 19.9 6.39 (17:50) 4.44 (16:40) 0 0 0 0 0
17-10-2019 21.4 (17:00) 13.7 (00:00) 17.5 7.78 (16:50) 5 (17:10) 0 0 0 0 0
16-10-2019 21 (17:40) 12.6 (00:00) 16.8 7.22 (17:00) 4.72 (17:40) 0 0 0 0 0
15-10-2019 20.4 (14:40) 13.7 (00:00) 17 7.22 (18:00) 4.17 (15:40) 0 0 0 0 0
14-10-2019 21.9 (17:10) 19 (00:00) 20.4 11.39 (18:00) 7.22 (18:30) 4.2 0 4.2 0 0

Gráficas

Temp. máximas Temp. mínimas Temp. medias Precipitaciones Rachas de viento máximas Velocidades máximas media en intervalos de 10 minutos

Datos horarios

Fecha y hora oficial Temperatura (ºC) Velocidad del viento (km/h) Dirección del viento Racha (km/h) Dirección de racha Precipitación (mm) Presión (hPa) Tendencia (hPa) Humedad (%)
2019-11-12 23:00:00 15.8 13 Noroeste 24 Noroeste 0 1014.5 0.7 70
2019-11-12 22:00:00 16.3 14 Noroeste 29 Noroeste 0 1014.3 0.6 67
2019-11-12 21:00:00 15.4 14 Noroeste 28 Oeste 0 1014 0.6 76
2019-11-12 20:00:00 15.9 19 Oeste 29 Oeste 0 1013.8 0.5 75
2019-11-12 19:00:00 15.4 18 Oeste 28 Oeste 0 1013.7 0.5 68
2019-11-12 18:00:00 16.1 18 Oeste 26 Oeste 0 1013.4 -0.3 63
2019-11-12 17:00:00 17.1 16 Noroeste 28 Noroeste 0 1013.3 -0.5 54
2019-11-12 16:00:00 16.9 13 Noroeste 35 Noroeste 0 1013.2 -1.2 57
2019-11-12 15:00:00 16.1 15 Noroeste 31 Noroeste 0 1013.7 -1.1 66
2019-11-12 14:00:00 15.7 15 Oeste 25 Oeste 0 1013.8 -0.9 73
2019-11-12 13:00:00 15.6 13 Noroeste 24 Noroeste 0 1014.4 -0.2 71
2019-11-12 12:00:00 15.2 12 Noroeste 21 Noroeste 0 1014.8 0.8 72
2019-11-12 11:00:00 14.4 6 Norte 23 Norte 0 1014.7 1.1 76
2019-11-12 10:00:00 13.1 9 Norte 19 Norte 0 1014.6 1.3 85
2019-11-12 09:00:00 12.3 4 Norte 13 Norte 0 1014 1.3 88
2019-11-12 08:00:00 12.5 5 Norte 18 Norte 0 1013.6 0.5 86
2019-11-12 07:00:00 12.8 6 Norte 17 Noroeste 0 1013.3 -0.1 82
2019-11-12 06:00:00 12.9 5 Norte 10 Norte 0 1012.7 -0.7 79
2019-11-12 05:00:00 13.5 3 Norte 13 Norte 0 1013.1 -0.5 78
2019-11-12 04:00:00 14.1 5 Norte 21 Norte 0 1013.4 -0.9 79
2019-11-12 03:00:00 14.8 9 Noroeste 25 Noroeste 0 1013.4 -0.7 77
2019-11-12 02:00:00 15.2 13 Noroeste 29 Noroeste 0 1013.6 -0.9 76
2019-11-12 01:00:00 16.1 13 Noroeste 26 Noroeste 0 1014.3 -0.1 78
2019-11-12 00:00:00 16.5 13 Noroeste 26 Noroeste 0 1014.1 0.1 80
2019-11-11 23:00:00 16.5 9 Oeste 16 Oeste 0 1014.5 0.6 93
2019-11-11 22:00:00 16.8 11 Oeste 19 Oeste 0 1014.4 0.2 92
2019-11-11 21:00:00 16.5 9 Oeste 21 Oeste 0 1014 -0.1 90
2019-11-11 20:00:00 17.2 12 Oeste 25 Oeste 0 1013.9 -0.1 88
2019-11-11 19:00:00 17.1 15 Oeste 23 Oeste 0 1014.2 -0.1 86
2019-11-11 18:00:00 17.2 13 Oeste 25 Oeste 0 1014.1 -1 85
2019-11-11 17:00:00 17.3 16 Oeste 28 Oeste 0 1014 -1.4 83
2019-11-11 16:00:00 17.1 10 Oeste 21 Oeste 0 1014.3 -1.8 86
2019-11-11 15:00:00 16.7 6 Oeste 15 Oeste 0 1015.1 -1.6 86
2019-11-11 14:00:00 16.5 8 Oeste 14 Oeste 0 1015.4 -1.9 88
2019-11-11 13:00:00 15.9 6 Sudoeste 13 Sudoeste 0 1016.1 -1.2 89
2019-11-11 12:00:00 15.2 0 Calma 0 Calma 0 1016.7 -0.5 92
2019-11-11 11:00:00 14.8 0 Calma 2 Sur 0.1 1017.3 0.4 93
2019-11-11 10:00:00 14.1 0 Calma 0 Calma 0.5 1017.3 0.4 93
2019-11-11 09:00:00 13.7 0 Calma 0 Calma 0.1 1017.2 0.1 93
2019-11-11 08:00:00 13.5 0 Calma 6 Norte 0 1016.9 -0.4 93
2019-11-11 07:00:00 13.4 0 Calma 16 Norte 0.2 1016.9 -0.6 92
2019-11-11 06:00:00 13.6 6 Norte 22 Noroeste 0 1017.1 -1.3 90
2019-11-11 05:00:00 13.6 13 Noroeste 31 Noroeste 0 1017.3 -1.3 89
2019-11-11 04:00:00 14 17 Noroeste 32 Noroeste 0 1017.5 -1.3 87
2019-11-11 03:00:00 14.9 20 Noroeste 34 Noroeste 0 1018.4 -0.4 75
2019-11-11 02:00:00 15.3 22 Noroeste 47 Noroeste 0 1018.6 -0.6 71
2019-11-11 01:00:00 15.2 31 Noroeste 50 Noroeste 0 1018.8 0.6 68
2019-11-11 00:00:00 15.1 25 Noroeste 50 Noroeste 0 1018.8 0.4 68
2019-11-10 23:00:00 15.2 21 Noroeste 42 Noroeste 0 1019.2 0.7 63
2019-11-10 22:00:00 15.8 28 Noroeste 44 Noroeste 0 1018.2 0.2 56
2019-11-10 21:00:00 16.2 23 Noroeste 41 Noroeste 0 1018.4 1 56
2019-11-10 20:00:00 16.5 25 Noroeste 46 Noroeste 0 1018.5 0.6 53
2019-11-10 19:00:00 16.9 28 Noroeste 49 Noroeste 0.1 1018 1.1 52
2019-11-10 18:00:00 16.9 29 Noroeste 45 Noroeste 0 1017.4 0.2 53
2019-11-10 17:00:00 16.9 26 Noroeste 51 Noroeste 0 1017.9 0.3 50
2019-11-10 16:00:00 17.1 31 Noroeste 56 Noroeste 0 1016.9 -1.4 47
2019-11-10 15:00:00 17 25 Noroeste 47 Noroeste 0 1017.2 -1.7 53
2019-11-10 14:00:00 16.2 29 Noroeste 47 Noroeste 0 1017.6 -1.7 54
2019-11-10 13:00:00 15.5 23 Noroeste 38 Noroeste 0 1018.3 -0.8 61
2019-11-10 12:00:00 15.3 20 Noroeste 33 Noroeste 0 1018.9 0 61
2019-11-10 11:00:00 14.7 20 Noroeste 37 Noroeste 0 1019.3 1.7 64
2019-11-10 10:00:00 14.4 19 Noroeste 36 Noroeste 0 1019.1 1.5 65
2019-11-10 09:00:00 14 20 Noroeste 40 Noroeste 0 1018.9 1.3 66
2019-11-10 08:00:00 14.2 26 Noroeste 40 Noroeste 0 1017.6 -0.2 70
2019-11-10 07:00:00 14 16 Noroeste 33 Noroeste 0 1017.6 0.1 68
2019-11-10 06:00:00 14 17 Noroeste 39 Noroeste 0 1017.6 0 67
2019-11-10 05:00:00 14.5 24 Noroeste 42 Noroeste 0 1017.8 0.1 65
2019-11-10 04:00:00 15.1 24 Noroeste 44 Noroeste 0.1 1017.5 -0.6 61
2019-11-10 03:00:00 16 23 Noroeste 39 Noroeste 0 1017.6 -1.4 64
2019-11-10 02:00:00 15.9 20 Noroeste 33 Noroeste 0.3 1017.7 -1.7 92
2019-11-10 01:00:00 16.6 17 Oeste 32 Oeste 0.1 1018.1 -1.2 85
2019-11-10 00:00:00 16.7 16 Oeste 26 Oeste 0 1019 -0.6 81
2019-11-09 23:00:00 16.7 15 Oeste 23 Oeste 0 1019.4 -0.8 80
2019-11-09 22:00:00 16.4 13 Oeste 22 Oeste 0 1019.3 -0.4 76
2019-11-09 21:00:00 15.5 13 Oeste 25 Oeste 0 1019.6 0.1 73
2019-11-09 20:00:00 15.2 16 Oeste 23 Oeste 0 1020.2 0.3 70
2019-11-09 19:00:00 14.8 10 Oeste 16 Oeste 0 1019.7 -0.3 65
2019-11-09 18:00:00 15.3 8 Noroeste 19 Noroeste 0 1019.5 -0.6 60
2019-11-09 17:00:00 15.5 12 Noroeste 22 Oeste 0 1019.9 -0.8 52
2019-11-09 16:00:00 14.9 14 Oeste 24 Oeste 0 1020 -1.4 59
2019-11-09 15:00:00 15.3 14 Oeste 24 Oeste 0 1020.1 -2.1 53
2019-11-09 14:00:00 15.2 14 Oeste 22 Oeste 0 1020.7 -1.4 52
2019-11-09 13:00:00 14.9 10 Noroeste 15 Noroeste 0 1021.4 -0.9 52
2019-11-09 12:00:00 14.4 5 Norte 11 Norte 0 1022.2 0.5 52
2019-11-09 11:00:00 12.6 5 Nordeste 14 Norte 0 1022.1 1.2 57
2019-11-09 10:00:00 11.4 3 Norte 11 Nordeste 0 1022.3 2.2 62
2019-11-09 09:00:00 9.9 5 Nordeste 13 Nordeste 0 1021.7 1.6 67
2019-11-09 08:00:00 9.6 4 Nordeste 13 Norte 0 1020.9 1 67
2019-11-09 07:00:00 9.5 4 Nordeste 12 Nordeste 0 1020.1 0 68
2019-11-09 06:00:00 10 4 Nordeste 12 Norte 0 1020.1 -0.1 65
2019-11-09 05:00:00 10.7 4 Nordeste 13 Nordeste 0 1019.9 -0.4 60
2019-11-09 04:00:00 11.2 5 Nordeste 12 Norte 0 1020.1 -0.3 59
2019-11-09 03:00:00 11.2 2 Norte 14 Norte 0 1020.2 -0.4 56
2019-11-09 02:00:00 11.6 3 Norte 15 Nordeste 0 1020.3 0.1 56
2019-11-09 01:00:00 12.4 4 Nordeste 16 Norte 0 1020.4 0.4 53
2019-11-09 00:00:00 13.6 3 Nordeste 23 Norte 0 1020.6 1.3 53
2019-11-08 23:00:00 14.8 12 Norte 23 Noroeste 0 1020.2 1.1 50
2019-11-08 22:00:00 15.6 13 Noroeste 29 Noroeste 0 1020 1.4 50
2019-11-08 21:00:00 16.3 16 Noroeste 30 Noroeste 0 1019.3 1.1 47
2019-11-08 20:00:00 16.1 16 Noroeste 27 Oeste 0 1019.1 1.4 49
2019-11-08 19:00:00 15.8 15 Noroeste 28 Noroeste 0 1018.6 1.3 50
2019-11-08 18:00:00 16.1 14 Oeste 31 Noroeste 0 1018.2 0.9 50
2019-11-08 17:00:00 16.2 18 Oeste 30 Noroeste 0 1017.7 0.1 49
2019-11-08 16:00:00 16.3 20 Noroeste 33 Noroeste 0 1017.3 -0.7 49
2019-11-08 15:00:00 15.9 19 Noroeste 34 Noroeste 0 1017.3 -0.9 48
2019-11-08 14:00:00 15.4 22 Noroeste 40 Noroeste 0 1017.6 -0.8 53
2019-11-08 13:00:00 15.2 25 Noroeste 36 Noroeste 0 1018 -0.1 52
2019-11-08 12:00:00 15.2 21 Noroeste 35 Noroeste 0 1018.2 0.8 54
2019-11-08 11:00:00 15.2 19 Noroeste 33 Noroeste 0 1018.4 1.9 53
2019-11-08 10:00:00 14.9 21 Noroeste 34 Noroeste 0 1018.1 2 61
2019-11-08 09:00:00 14.3 18 Noroeste 29 Noroeste 0 1017.4 1.6 65
2019-11-08 08:00:00 13.4 7 Norte 22 Noroeste 0 1016.5 1.3 72
2019-11-08 07:00:00 14.2 13 Noroeste 28 Noroeste 0 1016.1 0.9 68
2019-11-08 06:00:00 14.3 14 Noroeste 33 Noroeste 0 1015.8 0.7 65
2019-11-08 05:00:00 14.5 21 Noroeste 35 Noroeste 0 1015.2 0 62
2019-11-08 04:00:00 14.9 19 Noroeste 36 Noroeste 0 1015.2 -0.2 60
2019-11-08 03:00:00 15.1 19 Noroeste 32 Noroeste 0 1015.1 -0.3 59
2019-11-08 02:00:00 15 14 Noroeste 28 Noroeste 0 1015.2 -0.1 59
2019-11-08 01:00:00 15.1 13 Noroeste 28 Noroeste 0 1015.4 0.7 57
2019-11-08 00:00:00 15.5 14 Noroeste 35 Noroeste 0 1015.4 1.1 55
2019-11-07 23:00:00 16.2 15 Noroeste 36 Noroeste 0 1015.3 1.5 52
2019-11-07 22:00:00 16.2 11 Noroeste 27 Noroeste 0 1014.7 1.7 50
2019-11-07 21:00:00 16.6 10 Norte 30 Noroeste 0 1014.3 2.1 50
2019-11-07 20:00:00 17.8 20 Noroeste 43 Noroeste 0 1013.8 1.8 47
2019-11-07 19:00:00 17.8 22 Noroeste 34 Noroeste 0 1013 1 50
2019-11-07 18:00:00 18.2 18 Noroeste 33 Noroeste 0 1012.2 0.5 49
2019-11-07 17:00:00 18.5 19 Noroeste 40 Noroeste 0 1012 -0.4 46
2019-11-07 16:00:00 18.4 22 Noroeste 36 Oeste 0 1012 -0.5 47
2019-11-07 15:00:00 18.3 18 Noroeste 39 Noroeste 0 1011.7 -1.2 53
2019-11-07 14:00:00 17.9 24 Noroeste 41 Noroeste 0 1012.4 -0.7 65
2019-11-07 13:00:00 16.4 21 Noroeste 41 Noroeste 2.7 1012.5 -0.6 93
2019-11-07 12:00:00 17.1 19 Oeste 35 Oeste 1.5 1012.9 -0.1 91
2019-11-07 11:00:00 18.3 13 Sudoeste 21 Sudoeste 0.5 1013.1 0.5 83
2019-11-07 10:00:00 17.8 12 Oeste 28 Oeste 0 1013.1 0.3 82
2019-11-07 09:00:00 17.1 10 Oeste 15 Oeste 0 1013 0 83
2019-11-07 08:00:00 13.9 3 Sudeste 7 Sudeste 0 1012.6 -0.5 79
2019-11-07 07:00:00 13.1 3 Sudeste 7 Este 0 1012.8 -0.4 81
2019-11-07 06:00:00 13.7 3 Sudeste 6 Sudeste 0 1013 -0.3 77
2019-11-07 05:00:00 14.2 4 Sudeste 9 Sudeste 0 1013.1 -0.8 75
2019-11-07 04:00:00 14.6 3 Este 7 Este 0 1013.2 -1.1 74
2019-11-07 03:00:00 15.2 4 Este 7 Este 0 1013.3 -1.3 73
2019-11-07 02:00:00 15.7 2 Este 8 Norte 0 1013.9 -1.1 71
2019-11-07 01:00:00 17 3 Nordeste 17 Norte 0 1014.3 -0.7 68
2019-11-07 00:00:00 17.9 11 Noroeste 24 Noroeste 0 1014.6 -0.3 65
2019-11-06 23:00:00 17.9 11 Noroeste 21 Noroeste 0 1015 0 65
2019-11-06 22:00:00 17.8 14 Oeste 25 Oeste 0 1015 0.5 73
2019-11-06 21:00:00 17.6 17 Oeste 31 Oeste 0 1014.9 0.7 75
2019-11-06 20:00:00 17.4 17 Oeste 29 Oeste 0 1015 0.4 71
2019-11-06 19:00:00 17 18 Oeste 31 Noroeste 0 1014.5 -0.3 70
2019-11-06 18:00:00 17.3 19 Oeste 30 Oeste 0 1014.2 -1 66
2019-11-06 17:00:00 18.1 18 Oeste 30 Oeste 0 1014.6 -1 59
2019-11-06 16:00:00 18.4 15 Noroeste 27 Noroeste 0 1014.8 -1.5 56
2019-11-06 15:00:00 17.8 17 Noroeste 26 Noroeste 0 1015.2 -1.8 60
2019-11-06 14:00:00 17.2 17 Oeste 24 Noroeste 0 1015.6 -1.5 65
2019-11-06 13:00:00 16.6 16 Noroeste 25 Noroeste 0 1016.3 -0.5 65
2019-11-06 12:00:00 16.2 15 Noroeste 24 Noroeste 0 1017 0.6 66
2019-11-06 11:00:00 15.7 12 Noroeste 23 Noroeste 0 1017.1 0.9 68
2019-11-06 10:00:00 14.8 8 Norte 20 Noroeste 0 1016.8 0.9 77
2019-11-06 09:00:00 14 8 Noroeste 18 Noroeste 0 1016.4 0.8 82
2019-11-06 08:00:00 13.7 8 Norte 15 Norte 0 1016.2 0.5 83
2019-11-06 07:00:00 13.6 4 Norte 13 Norte 0 1015.9 0 81
2019-11-06 06:00:00 14.1 7 Norte 21 Norte 0 1015.6 -0.6 77
2019-11-06 05:00:00 15 10 Noroeste 28 Norte 0 1015.7 -0.5 73
2019-11-06 04:00:00 15.5 12 Norte 29 Noroeste 0 1015.9 -0.8 71
2019-11-06 03:00:00 16 10 Noroeste 25 Noroeste 0 1016.2 -0.2 69
2019-11-06 02:00:00 16.7 13 Noroeste 29 Noroeste 0 1016.2 -0.2 66
2019-11-06 01:00:00 17.1 16 Noroeste 34 Noroeste 0 1016.7 0.5 62
2019-11-06 00:00:00 17.7 18 Noroeste 34 Noroeste 0 1016.4 0.9 61
2019-11-05 23:00:00 18.3 19 Noroeste 32 Noroeste 0 1016.4 1.4 62
2019-11-05 22:00:00 18.8 17 Noroeste 33 Noroeste 0 1016.2 1.7 58
2019-11-05 21:00:00 18.6 17 Oeste 32 Oeste 0 1015.5 1.4 74
2019-11-05 20:00:00 18.3 19 Oeste 36 Oeste 0 1015 0.7 71
2019-11-05 19:00:00 18.1 22 Oeste 36 Oeste 0 1014.5 0 68
2019-11-05 18:00:00 18.3 24 Oeste 37 Oeste 0 1014.1 -0.5 64
2019-11-05 17:00:00 19 22 Oeste 36 Oeste 0 1014.3 -0.7 59
2019-11-05 16:00:00 18.9 21 Oeste 32 Oeste 0 1014.5 -0.9 57
2019-11-05 15:00:00 18.5 17 Oeste 31 Noroeste 0 1014.6 -1.1 57
2019-11-05 14:00:00 18.1 19 Noroeste 31 Noroeste 0 1015 -0.6 56
2019-11-05 13:00:00 17.8 20 Noroeste 35 Noroeste 0 1015.4 0 57
2019-11-05 12:00:00 17.4 18 Noroeste 36 Noroeste 0 1015.7 1 57
2019-11-05 11:00:00 17.4 20 Noroeste 31 Noroeste 0 1015.6 1.7 56
2019-11-05 10:00:00 16.7 18 Noroeste 31 Noroeste 0 1015.4 2.2 62
2019-11-05 09:00:00 16.3 13 Noroeste 34 Noroeste 0 1014.7 2 65
2019-11-05 08:00:00 16.2 21 Noroeste 40 Noroeste 0 1013.9 1.6 62
2019-11-05 07:00:00 16.6 18 Noroeste 34 Noroeste 0 1013.2 1.2 62
2019-11-05 06:00:00 17 18 Noroeste 39 Noroeste 0 1012.7 0.8 63
2019-11-05 05:00:00 17.3 19 Noroeste 37 Noroeste 0 1012.3 0.1 62
2019-11-05 04:00:00 16.9 21 Noroeste 44 Noroeste 0 1012 -0.2 71
2019-11-05 03:00:00 17.5 22 Oeste 40 Noroeste 0.2 1011.9 -0.4 91
2019-11-05 02:00:00 17.6 22 Oeste 42 Oeste 0.2 1012.2 -0.3 89
2019-11-05 01:00:00 19.2 22 Oeste 33 Oeste 0 1012.2 -0.2 77
2019-11-05 00:00:00 19.1 20 Oeste 33 Oeste 0 1012.3 -0.4 77
2019-11-04 23:00:00 19 18 Oeste 30 Oeste 0 1012.5 -0.3 78
2019-11-04 22:00:00 18.8 17 Oeste 24 Oeste 0 1012.4 -0.1 77
2019-11-04 21:00:00 19.1 17 Oeste 27 Oeste 0 1012.7 0.6 75
2019-11-04 20:00:00 18.8 18 Oeste 31 Oeste 0 1012.8 0.6 79
2019-11-04 19:00:00 19.1 15 Oeste 27 Sudoeste 0 1012.5 -0.1 85
2019-11-04 18:00:00 20 16 Oeste 29 Oeste 0 1012.1 -1.1 76
2019-11-04 17:00:00 20 14 Oeste 27 Oeste 0 1012.2 -1.6 79
2019-11-04 16:00:00 20.3 15 Sudoeste 30 Sudoeste 0 1012.6 -2.3 75
2019-11-04 15:00:00 20.4 18 Oeste 28 Oeste 0 1013.2 -2.1 74
2019-11-04 14:00:00 20.5 16 Oeste 26 Oeste 0 1013.8 -1.6 70
2019-11-04 13:00:00 20.1 15 Oeste 25 Oeste 0 1014.9 -0.6 73
2019-11-04 12:00:00 20.2 15 Oeste 26 Oeste 0 1015.3 0 74
2019-11-04 11:00:00 19.8 12 Oeste 21 Oeste 0 1015.4 0.7 77
2019-11-04 10:00:00 19.1 14 Oeste 26 Oeste 0 1015.5 1 80
2019-11-04 09:00:00 18.7 13 Oeste 25 Noroeste 0 1015.3 1 87
2019-11-04 08:00:00 18.7 12 Oeste 18 Oeste 0 1014.7 0.3 87
2019-11-04 07:00:00 18.5 8 Oeste 17 Oeste 0 1014.5 -0.2 88
2019-11-04 06:00:00 18.8 9 Oeste 21 Oeste 0 1014.3 -0.7 86
2019-11-04 05:00:00 18.8 14 Oeste 23 Oeste 0 1014.4 -1 82
2019-11-04 04:00:00 18.7 13 Oeste 19 Oeste 0 1014.7 -0.9 85
2019-11-04 03:00:00 19 12 Oeste 25 Oeste 0 1015 -1 84
2019-11-04 02:00:00 19.2 16 Oeste 26 Oeste 0 1015.4 -0.9 84
2019-11-04 01:00:00 19.2 15 Oeste 27 Oeste 0 1015.6 -0.2 84
2019-11-04 00:00:00 19.2 18 Oeste 27 Oeste 0 1016 0.5 85
2019-11-03 23:00:00 19.3 18 Oeste 31 Oeste 0 1016.3 1.7 85
2019-11-03 22:00:00 19.2 17 Oeste 31 Oeste 0 1015.8 1.7 85
2019-11-03 21:00:00 19.3 18 Oeste 34 Oeste 0 1015.5 2 84
2019-11-03 20:00:00 19.4 21 Oeste 39 Oeste 0 1014.6 1.2 82
2019-11-03 19:00:00 19.4 23 Oeste 40 Oeste 0 1014.1 1.2 81
2019-11-03 18:00:00 19.9 24 Oeste 43 Oeste 0 1013.5 0.6 77
2019-11-03 17:00:00 20.7 25 Oeste 41 Oeste 0 1013.4 0.5 72
2019-11-03 16:00:00 21.1 26 Oeste 44 Oeste 0 1012.9 -0.4 72
2019-11-03 15:00:00 20.8 26 Oeste 43 Oeste 0 1012.9 -0.3 73
2019-11-03 14:00:00 20.6 26 Oeste 42 Oeste 0 1012.9 -0.4 68
2019-11-03 13:00:00 20.7 26 Oeste 41 Oeste 0 1013.3 0.5 70
2019-11-03 12:00:00 20.6 26 Oeste 39 Oeste 0 1013.2 1.2 71
2019-11-03 11:00:00 20 23 Oeste 39 Oeste 0 1013.3 2.3 74
2019-11-03 10:00:00 19.7 20 Oeste 35 Oeste 0 1012.8 2.1 78
2019-11-03 09:00:00 19 25 Oeste 39 Oeste 0 1012 1.8 79
2019-11-03 08:00:00 18.8 17 Oeste 28 Oeste 0 1011 1.2 85
2019-11-03 07:00:00 19 16 Noroeste 29 Noroeste 0 1010.7 0.8 89
2019-11-03 06:00:00 19.1 18 Oeste 33 Oeste 0.1 1010.2 -0.2 91
2019-11-03 05:00:00 19.2 24 Oeste 36 Oeste 0.5 1009.8 -0.8 91
2019-11-03 04:00:00 19.3 21 Oeste 37 Oeste 0 1009.9 -1.1 88
2019-11-03 03:00:00 19.5 22 Oeste 36 Oeste 0 1010.4 -0.7 86
2019-11-03 02:00:00 19.4 21 Oeste 34 Oeste 0 1010.6 -0.8 86
2019-11-03 01:00:00 19.4 19 Oeste 30 Oeste 0 1011 -0.4 86
2019-11-03 00:00:00 19.3 19 Oeste 30 Sudoeste 0 1011.1 -0.1 86
2019-11-02 23:00:00 19.3 19 Oeste 31 Oeste 0 1011.4 0.1 86
2019-11-02 22:00:00 19.4 20 Oeste 33 Oeste 0 1011.4 0.2 85
2019-11-02 21:00:00 19.5 23 Oeste 34 Oeste 0 1011.2 0.4 85
2019-11-02 20:00:00 19.7 22 Oeste 35 Oeste 0 1011.3 -0.1 83
2019-11-02 19:00:00 20.1 23 Oeste 35 Oeste 0 1011.2 -0.3 85
2019-11-02 18:00:00 20.5 22 Oeste 37 Oeste 0 1010.8 -1.1 84
2019-11-02 17:00:00 21.6 23 Oeste 38 Oeste 0 1011.4 -1 81
2019-11-02 16:00:00 22.3 18 Oeste 37 Oeste 0 1011.5 -1.8 79
2019-11-02 15:00:00 22.2 22 Oeste 37 Oeste 0.1 1011.9 -2.1 85
2019-11-02 14:00:00 22.3 19 Sudoeste 37 Oeste 0 1012.4 -1.8 86
2019-11-02 13:00:00 21.5 16 Sudoeste 35 Sudoeste 0 1013.3 -1.1 87
2019-11-02 12:00:00 21.1 20 Sudoeste 33 Sudoeste 0 1014 -0.8 91
2019-11-02 11:00:00 20.5 16 Sudoeste 28 Sudoeste 0 1014.2 -0.5 91
2019-11-02 10:00:00 20.3 14 Sudoeste 25 Sudoeste 0 1014.4 0 92
2019-11-02 09:00:00 19.9 12 Sudoeste 23 Oeste 0 1014.8 -0.5 92
2019-11-02 08:00:00 19.7 10 Oeste 21 Oeste 0.2 1014.7 -1.4 92
2019-11-02 07:00:00 19.9 13 Oeste 27 Oeste 0.2 1014.4 -2 92
2019-11-02 06:00:00 19.8 10 Sudoeste 19 Sudoeste 0 1015.3 -1.8 92
2019-11-02 05:00:00 19.7 10 Sudoeste 22 Sudoeste 0 1016.1 -1.4 92
2019-11-02 04:00:00 19.7 10 Sudoeste 19 Sudoeste 0.6 1016.4 -1.5 92
2019-11-02 03:00:00 19.7 9 Sudoeste 23 Oeste 1.8 1017.1 -2.3 92
2019-11-02 02:00:00 19.7 8 Sudoeste 19 Sudoeste 0 1017.5 -1.9 91
2019-11-02 01:00:00 19.8 9 Sudoeste 33 Oeste 0.1 1017.9 -1.8 91
2019-11-02 00:00:00 19.9 12 Oeste 20 Sudoeste 0 1019.4 -0.7 89
2019-11-01 23:00:00 19.9 10 Oeste 24 Oeste 0 1019.4 -0.5 88
2019-11-01 22:00:00 19.9 17 Oeste 26 Oeste 0 1019.7 -0.4 88
2019-11-01 21:00:00 20 17 Oeste 28 Oeste 0 1020.1 0.1 86
2019-11-01 20:00:00 20.2 17 Oeste 27 Oeste 0 1019.9 -0.3 85
2019-11-01 19:00:00 20.2 17 Oeste 29 Oeste 0 1020.1 -0.3 84
2019-11-01 18:00:00 20.2 17 Oeste 31 Oeste 0 1020 -0.4 85
2019-11-01 17:00:00 20.8 19 Oeste 33 Oeste 0 1020.2 -0.7 83
2019-11-01 16:00:00 21.3 17 Oeste 29 Oeste 0 1020.4 -1.3 83
2019-11-01 15:00:00 21.9 18 Oeste 29 Oeste 0 1020.4 -1.8 82
2019-11-01 14:00:00 22.2 13 Oeste 26 Oeste 0 1020.9 -1.6 72
2019-11-01 13:00:00 21.8 17 Oeste 25 Oeste 0 1021.7 -0.4 81
2019-11-01 12:00:00 21.2 13 Oeste 24 Noroeste 0 1022.2 0.5 80
2019-11-01 11:00:00 21.2 15 Noroeste 26 Noroeste 0 1022.5 1 80
2019-11-01 10:00:00 20.7 14 Noroeste 23 Noroeste 0 1022.1 0.6 83
2019-11-01 09:00:00 19.9 15 Noroeste 26 Noroeste 0 1021.7 0.2 88
2019-11-01 08:00:00 19.6 17 Noroeste 26 Noroeste 0 1021.5 0.3 88
2019-11-01 07:00:00 19.6 15 Noroeste 26 Noroeste 0 1021.5 0.3 89
2019-11-01 06:00:00 19.6 10 Noroeste 21 Noroeste 0 1021.5 -0.1 89
2019-11-01 05:00:00 19.6 12 Noroeste 19 Noroeste 0 1021.2 -0.6 89
2019-11-01 04:00:00 19.7 11 Noroeste 27 Noroeste 0 1021.2 -0.9 89
2019-11-01 03:00:00 19.8 16 Noroeste 29 Noroeste 0 1021.6 -0.7 89
2019-11-01 02:00:00 20.1 17 Noroeste 32 Noroeste 0 1021.8 -0.5 89
2019-11-01 01:00:00 20.2 15 Noroeste 27 Noroeste 0 1022.1 0 90
2019-11-01 00:00:00 19.6 7 Oeste 13 Noroeste 0 1022.3 0.2 94
2019-10-31 23:00:00 20 10 Oeste 20 Oeste 0 1022.3 0.4 94
2019-10-31 22:00:00 20.2 12 Oeste 20 Oeste 0 1022.1 0.4 94
2019-10-31 21:00:00 20.3 10 Oeste 16 Oeste 0 1022.1 0.9 94
2019-10-31 20:00:00 20.3 5 Oeste 19 Noroeste 0 1021.9 0.7 94
2019-10-31 19:00:00 20.1 14 Oeste 25 Oeste 0 1021.7 0.3 93
2019-10-31 18:00:00 21.1 11 Oeste 24 Oeste 0 1021.2 -0.3 89
2019-10-31 17:00:00 21.8 16 Oeste 24 Oeste 0 1021.2 -0.9 85
2019-10-31 16:00:00 21.2 14 Oeste 20 Oeste 0 1021.4 -1.3 87
2019-10-31 15:00:00 21.2 14 Oeste 22 Oeste 0 1021.5 -1.5 88
2019-10-31 14:00:00 21 12 Oeste 22 Oeste 0 1022.1 -1 90
2019-10-31 13:00:00 20.8 12 Oeste 22 Oeste 0 1022.7 -0.1 91
2019-10-31 12:00:00 20.7 12 Oeste 19 Oeste 0 1023 0.8 91
2019-10-31 11:00:00 20.6 12 Oeste 18 Oeste 0 1023.1 1.7 92
2019-10-31 10:00:00 20.1 9 Oeste 16 Oeste 0 1022.8 1.7 93
2019-10-31 09:00:00 19.6 6 Oeste 10 Oeste 0 1022.2 1.4 93
2019-10-31 08:00:00 19 4 Oeste 8 Oeste 0 1021.4 0.6 93
2019-10-31 07:00:00 19.2 4 Oeste 6 Oeste 0 1021.1 0.2 92
2019-10-31 06:00:00 19.5 0 Calma 2 Noroeste 0 1020.8 -0.3 92
2019-10-31 05:00:00 19.6 0 Calma 2 Oeste 0 1020.8 -0.4 91
2019-10-31 04:00:00 19.8 0 Calma 4 Oeste 0 1020.9 -0.7 91
2019-10-31 03:00:00 19.8 0 Calma 7 Oeste 0 1021.1 -0.7 91
2019-10-31 02:00:00 20.1 3 Sudoeste 8 Sudoeste 0 1021.2 -0.7 92
2019-10-31 01:00:00 19.8 2 Sur 7 Sudoeste 0 1021.6 0.1 91
2019-10-31 00:00:00 19.8 4 Sudoeste 7 Sudoeste 0 1021.8 0.5 91
2019-10-30 23:00:00 19.8 5 Oeste 11 Oeste 0 1021.9 1.2 91
2019-10-30 22:00:00 19.9 5 Oeste 14 Oeste 0 1021.5 1.3 91
2019-10-30 21:00:00 19.9 8 Oeste 13 Oeste 0 1021.3 1.5 90
2019-10-30 20:00:00 20 8 Oeste 18 Oeste 0 1020.7 1.1 90
2019-10-30 19:00:00 20 10 Oeste 19 Oeste 0 1020.2 0.7 89
2019-10-30 18:00:00 19.9 11 Oeste 20 Oeste 0 1019.8 0.2 89
2019-10-30 17:00:00 20.2 12 Oeste 18 Oeste 0 1019.6 -0.1 83
2019-10-30 16:00:00 21 10 Oeste 21 Oeste 0 1019.5 -0.5 73
2019-10-30 15:00:00 20.8 12 Oeste 21 Oeste 0 1019.6 -0.8 80
2019-10-30 14:00:00 22 10 Oeste 19 Oeste 0 1019.7 -0.7 74
2019-10-30 13:00:00 20.6 9 Oeste 18 Oeste 0 1020 0 80
2019-10-30 12:00:00 19.3 6 Sudoeste 15 Oeste 0 1020.4 1.2 91
2019-10-30 11:00:00 19.1 3 Sudoeste 6 Sudoeste 0 1020.4 2 94
2019-10-30 10:00:00 18.6 4 Oeste 7 Noroeste 0 1020 2.1 94
2019-10-30 09:00:00 18.5 0 Calma 3 Norte 0 1019.2 1.4 94
2019-10-30 08:00:00 18.5 0 Calma 4 Noroeste 0 1018.4 1 94
2019-10-30 07:00:00 18.4 0 Calma 5 Oeste 0 1017.9 0.5 94
2019-10-30 06:00:00 18.4 0 Calma 5 Este 0 1017.8 0.2 94
2019-10-30 05:00:00 18.4 2 Noroeste 9 Noroeste 0 1017.4 -0.1 94
2019-10-30 04:00:00 18.6 0 Calma 8 Nordeste 0 1017.4 -0.6 94
2019-10-30 03:00:00 18.6 3 Nordeste 8 Nordeste 0 1017.6 -0.2 94
2019-10-30 02:00:00 17.9 3 Este 6 Este 0 1017.5 0.1 94
2019-10-30 01:00:00 18.5 3 Nordeste 6 Nordeste 0 1018 0.8 94
2019-10-30 00:00:00 18.6 2 Este 6 Norte 0 1017.8 0.8 94
2019-10-29 23:00:00 19.2 3 Norte 8 Norte 0 1017.4 0.9 94
2019-10-29 22:00:00 19.3 4 Noroeste 13 Oeste 0 1017.2 1.1 94
2019-10-29 21:00:00 19.2 8 Oeste 14 Noroeste 0 1017 1.4 94
2019-10-29 20:00:00 19.1 8 Noroeste 18 Oeste 0 1016.5 0.9 94
2019-10-29 19:00:00 19 9 Oeste 21 Oeste 0 1016.1 0.7 92
2019-10-29 18:00:00 19.7 13 Oeste 21 Oeste 0 1015.6 0.4 88
2019-10-29 17:00:00 20.2 10 Oeste 19 Oeste 0 1015.6 0.2 85
2019-10-29 16:00:00 19.6 14 Oeste 22 Oeste 0 1015.4 -0.7 88
2019-10-29 15:00:00 19.8 12 Oeste 20 Oeste 0 1015.2 -1.1 88
2019-10-29 14:00:00 22 8 Noroeste 15 Oeste 0 1015.4 -1 75
2019-10-29 13:00:00 20.3 9 Noroeste 14 Oeste 0 1016.1 -0.1 86
2019-10-29 12:00:00 19.4 6 Noroeste 9 Noroeste 0 1016.3 0.6 90
2019-10-29 11:00:00 19.2 5 Noroeste 8 Oeste 0 1016.4 1.7 91
2019-10-29 10:00:00 18.9 3 Norte 9 Norte 0 1016.2 1.8 92
2019-10-29 09:00:00 17.9 3 Noroeste 5 Oeste 0 1015.7 1.5 94
2019-10-29 08:00:00 17.6 3 Este 6 Este 0 1014.7 0.4 94
2019-10-29 07:00:00 18 2 Este 5 Este 0 1014.4 0.2 94
2019-10-29 06:00:00 17.8 3 Este 8 Este 0 1014.2 -0.1 94
2019-10-29 05:00:00 17.7 2 Este 6 Este 0 1014.3 -0.2 94
2019-10-29 04:00:00 17.5 3 Este 6 Sudeste 0 1014.2 -0.5 94
2019-10-29 03:00:00 17.4 4 Este 7 Sudeste 0 1014.3 -0.6 93
2019-10-29 02:00:00 18.2 0 Calma 3 Este 0 1014.5 -0.7 93
2019-10-29 01:00:00 18.6 0 Calma 4 Sudeste 0 1014.7 -0.5 93
2019-10-29 00:00:00 18.6 3 Sudeste 6 Sudeste 0 1014.9 -0.1 93
2019-10-28 23:00:00 18.9 3 Este 6 Este 0 1015.2 0.4 92
2019-10-28 22:00:00 19.5 4 Oeste 7 Oeste 0 1015.2 0.7 92
2019-10-28 21:00:00 19.8 4 Sudoeste 9 Sudoeste 0 1015 0.4 90
2019-10-28 20:00:00 19.8 5 Sudoeste 10 Sudoeste 0 1014.8 0 88
2019-10-28 19:00:00 20.1 5 Sudoeste 9 Sudoeste 0 1014.5 -0.3 85
2019-10-28 18:00:00 20.7 5 Sudoeste 14 Sudoeste 0 1014.6 -0.5 81
2019-10-28 17:00:00 21.4 4 Sudoeste 15 Sudeste 0 1014.8 -1 74
2019-10-28 16:00:00 22.7 5 Sudoeste 13 Oeste 0 1014.8 -1.6 73
2019-10-28 15:00:00 22.6 6 Sur 19 Oeste 0 1015.1 -1.9 75
2019-10-28 14:00:00 22.2 6 Sudoeste 14 Sudoeste 0 1015.8 -1 73
2019-10-28 13:00:00 21.8 6 Sur 19 Sur 0 1016.4 0 76
2019-10-28 12:00:00 21.5 10 Sur 22 Sur 0 1017 1.2 79
2019-10-28 11:00:00 20.9 8 Sur 16 Sudoeste 0 1016.8 1.4 79
2019-10-28 10:00:00 18.9 6 Este 13 Sudeste 0 1016.4 1.3 79
2019-10-28 09:00:00 17.2 7 Este 13 Este 0 1015.8 0.6 83
2019-10-28 08:00:00 16.6 5 Este 12 Este 0 1015.4 0.4 83
2019-10-28 07:00:00 16.7 5 Este 12 Este 0 1015.1 -0.2 83
2019-10-28 06:00:00 17.2 7 Este 13 Este 0 1015.2 0 82
2019-10-28 05:00:00 17.7 5 Este 8 Este 0 1015 -0.2 81
2019-10-28 04:00:00 17.7 3 Este 10 Sudeste 0 1015.3 -0.3 80
2019-10-28 03:00:00 17.4 3 Este 7 Este 0 1015.2 -1.1 79
2019-10-28 02:00:00 17.3 4 Este 12 Sudeste 0 1015.2 -1.3 77
2019-10-28 01:00:00 17.5 6 Este 11 Este 0 1015.6 -0.7 72
2019-10-28 00:00:00 17.8 0 Calma 10 Este 0 1016.3 0.2 66
2019-10-27 23:00:00 18.4 3 Este 6 Sudeste 0 1016.5 0.9 62
2019-10-27 22:00:00 18.9 2 Sur 10 Sudeste 0 1016.3 1.3 59
2019-10-27 21:00:00 19.4 6 Sudeste 13 Sudeste 0 1016.1 1.1 57
2019-10-27 20:00:00 20.6 6 Sudeste 21 Sudeste 0 1015.6 0.7 54
2019-10-27 19:00:00 21.6 8 Este 17 Sudeste 0 1015 0.4 53
2019-10-27 18:00:00 23 3 Sur 21 Sur 0 1015 -0.2 58
2019-10-27 17:00:00 23.9 12 Sur 24 Sur 0 1014.9 -0.7 56
2019-10-27 16:00:00 24.8 9 Sur 31 Sur 0 1014.6 -1.7 52
2019-10-27 15:00:00 24.8 12 Sur 38 Sur 0 1015.2 -1.5 52
2019-10-27 14:00:00 24 19 Sur 37 Sur 0 1015.6 -1.1 55
2019-10-27 13:00:00 24 10 Sur 25 Sur 0 1016.3 -0.5 58
2019-10-27 12:00:00 24.6 8 Sur 30 Sudeste 0 1016.7 0.3 51
2019-10-27 11:00:00 23.1 10 Sudeste 25 Sudeste 0 1016.7 0.8 54
2019-10-27 10:00:00 20.6 10 Sudeste 19 Este 0 1016.8 1.5 68
2019-10-27 09:00:00 17.4 8 Sudeste 23 Sudeste 0 1016.4 1.6 81
2019-10-27 08:00:00 16.7 9 Sudeste 22 Sudeste 0 1015.9 0.9 82
2019-10-27 07:00:00 16.8 9 Sudeste 20 Sudeste 0 1015.3 0.3 79
2019-10-27 06:00:00 16.7 9 Sudeste 18 Sudeste 0 1014.8 -0.2 74
2019-10-27 05:00:00 17 0 Calma 6 Sudeste 0 1015 -0.6 71
2019-10-27 04:00:00 17.7 0 Calma 6 Sudeste 0 1015 -0.4 68
2019-10-27 03:00:00 17.6 5 Este 9 Sudeste 0 1015 -0.7 68
2019-10-27 02:00:00 17.9 2 Oeste 7 Oeste 0 1015.6 0.2 65
2019-10-27 01:00:00 19.1 3 Este 17 Sudeste 0 1015.7 0.6 56
2019-10-27 00:00:00 19.5 10 Este 16 Este 0 1015.4 0.6 51
2019-10-26 23:00:00 19.8 5 Este 12 Este 0 1015.3 0.8 47
2019-10-26 22:00:00 20.5 9 Este 17 Sudeste 0 1015.1 1.1 47
2019-10-26 21:00:00 19.9 6 Este 11 Este 0 1014.8 0.9 62
2019-10-26 20:00:00 21.5 3 Nordeste 8 Nordeste 0 1014.5 0.5 72
2019-10-26 19:00:00 25.5 0 Calma 8 Sudoeste 0 1014 -0.2 49
2019-10-26 18:00:00 26.5 4 Oeste 11 Noroeste 0 1013.9 -0.7 44
2019-10-26 17:00:00 26.8 4 Noroeste 10 Oeste 0 1014 -1.3 44
2019-10-26 16:00:00 28.9 4 Sur 12 Sudeste 0 1014.2 -1.5 40
2019-10-26 15:00:00 29.2 4 Este 19 Sudeste 0 1014.6 -1.3 39
2019-10-26 14:00:00 28.8 9 Sudeste 22 Sudeste 0 1015.3 -0.5 31
2019-10-26 13:00:00 27.3 11 Este 30 Sudeste 0 1015.7 0 36
2019-10-26 12:00:00 25.5 12 Este 27 Sudeste 0 1015.9 0.8 40
2019-10-26 11:00:00 22.1 9 Sudeste 19 Sudeste 0 1015.8 1.1 49
2019-10-26 10:00:00 17.8 9 Este 14 Sudeste 0 1015.7 1.2 58
2019-10-26 09:00:00 16.8 8 Este 17 Sudeste 0 1015.1 0.6 60
2019-10-26 08:00:00 16.8 9 Este 26 Sudeste 0 1014.7 0.1 62
2019-10-26 07:00:00 17.3 13 Sudeste 24 Sudeste 0 1014.5 -0.5 62
2019-10-26 06:00:00 17.1 11 Este 21 Sudeste 0 1014.5 -0.7 62
2019-10-26 05:00:00 17.5 12 Sudeste 26 Sudeste 0 1014.6 -1 62
2019-10-26 04:00:00 17.7 11 Este 25 Este 0 1015 -1.1 59
2019-10-26 03:00:00 17.5 14 Este 26 Sudeste 0 1015.2 -1.2 59
2019-10-26 02:00:00 17.6 11 Sudeste 26 Sudeste 0 1015.6 -0.6 59
2019-10-26 01:00:00 18 13 Sudeste 26 Sudeste 0 1016.1 0 59
2019-10-26 00:00:00 18.3 10 Este 25 Sudeste 0 1016.4 0.6 55
2019-10-25 23:00:00 18.6 12 Este 25 Sudeste 0 1016.2 0.6 51
2019-10-25 22:00:00 19 8 Este 26 Sudeste 0 1016.1 0.6 46
2019-10-25 21:00:00 19.8 10 Este 23 Sudeste 0 1015.8 0.4 43
2019-10-25 20:00:00 21.4 11 Este 22 Sudeste 0 1015.6 0.2 38
2019-10-25 19:00:00 23.9 14 Este 27 Sudeste 0 1015.5 0 34
2019-10-25 18:00:00 26.6 14 Este 31 Sudeste 0 1015.4 -0.9 32
2019-10-25 17:00:00 27.2 14 Este 34 Este 0 1015.4 -1.5 31
2019-10-25 16:00:00 27.6 15 Este 34 Sudeste 0 1015.5 -2.2 31
2019-10-25 15:00:00 26.5 14 Sudeste 35 Sudeste 0 1016.3 -1.6 32
2019-10-25 14:00:00 25.1 15 Sudeste 37 Sudeste 0 1016.9 -1.1 35
2019-10-25 13:00:00 24.7 15 Sudeste 33 Sudeste 0 1017.7 -0.1 38
2019-10-25 12:00:00 23.1 14 Este 26 Sudeste 0 1017.9 0.8 43
2019-10-25 11:00:00 20.3 13 Este 24 Este 0 1018 1.2 55
2019-10-25 10:00:00 15.4 4 Este 15 Este 0 1017.8 1.2 66
2019-10-25 09:00:00 14.3 6 Este 13 Este 0 1017.1 0.5 65
2019-10-25 08:00:00 14.6 8 Este 12 Este 0 1016.8 0.1 63
2019-10-25 07:00:00 14.4 5 Este 13 Este 0 1016.6 -0.6 65
2019-10-25 06:00:00 14 7 Este 14 Este 0 1016.6 -0.9 68
2019-10-25 05:00:00 13.3 12 Este 22 Este 0 1016.7 -1.5 74
2019-10-25 04:00:00 13.5 11 Este 19 Este 0 1017.2 -1.5 77
2019-10-25 03:00:00 14.4 9 Nordeste 16 Este 0 1017.5 -1.3 77
2019-10-25 02:00:00 14.2 7 Este 16 Nordeste 0 1018.2 -0.6 80
2019-10-25 01:00:00 15.5 4 Nordeste 14 Norte 0 1018.7 0 79
2019-10-25 00:00:00 16.2 4 Norte 11 Norte 0 1018.8 0.4 77
2019-10-24 23:00:00 16.5 3 Norte 10 Norte 0 1018.8 0.5 76
2019-10-24 22:00:00 17.3 4 Norte 13 Noroeste 0 1018.7 0.9 71
2019-10-24 21:00:00 17.7 7 Noroeste 13 Noroeste 0 1018.4 0.6 66
2019-10-24 20:00:00 17.4 6 Oeste 16 Oeste 0 1018.3 0.6 66
2019-10-24 19:00:00 18.2 11 Oeste 21 Noroeste 0 1017.8 0 62
2019-10-24 18:00:00 18.4 13 Oeste 23 Oeste 0 1017.8 -0.4 59
2019-10-24 17:00:00 18.8 13 Oeste 22 Oeste 0 1017.7 -1.2 60
2019-10-24 16:00:00 18.2 13 Oeste 22 Noroeste 0 1017.8 -1.5 59
2019-10-24 15:00:00 18.4 13 Oeste 23 Oeste 0 1018.2 -1 59
2019-10-24 14:00:00 18 14 Oeste 23 Oeste 0 1018.9 -0.1 61
2019-10-24 13:00:00 18 9 Noroeste 18 Noroeste 0 1019.3 1.1 62
2019-10-24 12:00:00 17.4 8 Noroeste 21 Noroeste 0 1019.2 1.7 64
2019-10-24 11:00:00 16.9 6 Noroeste 16 Noroeste 0 1019 2.2 72
2019-10-24 10:00:00 14.6 3 Norte 8 Noroeste 0 1018.2 2.3 80
2019-10-24 09:00:00 14.4 2 Nordeste 8 Norte 0 1017.5 2 80
2019-10-24 08:00:00 14.6 4 Norte 15 Norte 0 1016.8 1.6 77
2019-10-24 07:00:00 15.8 7 Noroeste 19 Noroeste 0 1015.9 0.6 71
2019-10-24 06:00:00 16.3 10 Noroeste 22 Noroeste 0 1015.5 0.6 69
2019-10-24 05:00:00 16.5 15 Noroeste 27 Noroeste 0 1015.2 0.5 68
2019-10-24 04:00:00 16.6 16 Noroeste 33 Noroeste 0 1015.3 1.1 67
2019-10-24 03:00:00 16.9 21 Noroeste 33 Noroeste 0 1014.9 1.2 66
2019-10-24 02:00:00 17 19 Noroeste 34 Noroeste 0 1014.7 1.7 65
2019-10-24 01:00:00 17.5 21 Noroeste 33 Noroeste 0 1014.2 2.1 62
2019-10-24 00:00:00 17.9 20 Noroeste 37 Noroeste 0 1013.7 2.1 60
2019-10-23 23:00:00 18.4 20 Oeste 40 Oeste 0 1013 2.2 59
2019-10-23 22:00:00 18.4 23 Oeste 42 Oeste 0 1012.1 1.9 61
2019-10-23 21:00:00 18.4 29 Oeste 50 Oeste 0 1011.6 1.5 63
2019-10-23 20:00:00 18.7 28 Oeste 46 Oeste 0 1010.8 1.6 61
2019-10-23 19:00:00 18.9 31 Oeste 45 Oeste 0 1010.2 1.2 59
2019-10-23 18:00:00 19.4 26 Oeste 41 Oeste 0 1010.1 0.7 61
2019-10-23 17:00:00 19.5 25 Oeste 40 Oeste 0 1009.2 -0.6 57
2019-10-23 16:00:00 19.1 25 Oeste 46 Oeste 0 1009 -1.2 57
2019-10-23 15:00:00 19 28 Oeste 43 Oeste 0 1009.4 -0.8 57
2019-10-23 14:00:00 18.8 21 Oeste 41 Oeste 0 1009.8 -0.3 58
2019-10-23 13:00:00 18.6 21 Oeste 35 Oeste 0 1010.2 1.1 58
2019-10-23 12:00:00 17.5 18 Oeste 27 Oeste 0 1010.2 1.7 65
2019-10-23 11:00:00 16.9 14 Oeste 24 Noroeste 0 1010.1 1.5 70
2019-10-23 10:00:00 15.4 4 Noroeste 14 Oeste 0 1009.1 0.6 77
2019-10-23 09:00:00 14.9 3 Este 22 Noroeste 0 1008.5 0.5 75
2019-10-23 08:00:00 15.8 12 Noroeste 25 Noroeste 0 1008.6 0.7 72
2019-10-23 07:00:00 16 4 Norte 17 Noroeste 0 1008.5 0.8 70
2019-10-23 06:00:00 16.6 7 Noroeste 17 Noroeste 0 1008 0 67
2019-10-23 05:00:00 16.9 10 Noroeste 19 Noroeste 0 1007.9 -0.2 64
2019-10-23 04:00:00 16.7 9 Oeste 18 Oeste 0 1007.7 -0.8 62
2019-10-23 03:00:00 16.7 9 Oeste 14 Sudoeste 0 1008 -0.6 66
2019-10-23 02:00:00 16.1 5 Sudoeste 17 Sudoeste 0 1008.1 -0.5 65
2019-10-23 01:00:00 16.1 12 Oeste 19 Oeste 0 1008.5 0.3 65
2019-10-23 00:00:00 16 9 Oeste 16 Oeste 0 1008.6 0.2 63
2019-10-22 23:00:00 15.3 8 Oeste 14 Oeste 0 1008.6 0.7 64
2019-10-22 22:00:00 15.3 8 Sudoeste 12 Oeste 0 1008.2 0.5 62
2019-10-22 21:00:00 15.2 3 Sudoeste 10 Sudoeste 0 1008.4 1.4 60
2019-10-22 20:00:00 15.6 4 Sudoeste 13 Sudoeste 0 1007.9 0.8 59
2019-10-22 19:00:00 16.8 9 Sur 21 Sur 0 1007.7 0.4 54
2019-10-22 18:00:00 18.9 4 Sudeste 12 Sudeste 0 1007 -1.1 44
2019-10-22 17:00:00 17.2 6 Oeste 18 Oeste 0 1007.1 -1.1 48
2019-10-22 16:00:00 15.9 15 Oeste 35 Oeste 0 1007.3 -1.6 60
2019-10-22 15:00:00 15.1 20 Oeste 33 Oeste 0.1 1008.1 -0.7 70
2019-10-22 14:00:00 14.4 22 Sudoeste 43 Sudoeste 0.1 1008.2 -0.8 71
2019-10-22 13:00:00 16.3 13 Oeste 48 Oeste 0 1008.9 -0.2 63
2019-10-22 12:00:00 17.1 0 Calma 9 Sur 0 1008.8 0.3 59
2019-10-22 11:00:00 17.3 3 Sudeste 10 Sudeste 0 1009 0.5 61
2019-10-22 10:00:00 13.1 5 Sudeste 15 Sudeste 0 1009.1 0.2 78
2019-10-22 09:00:00 12 7 Este 12 Este 0 1008.5 -0.4 81
2019-10-22 08:00:00 12.8 0 Calma 3 Sudeste 0 1008.5 -0.9 74
2019-10-22 07:00:00 12.7 3 Este 9 Este 0 1008.9 -1.3 74
2019-10-22 06:00:00 13.5 0 Calma 8 Este 0 1008.9 -2 73
2019-10-22 05:00:00 13.7 4 Este 11 Sudeste 0 1009.4 -1.8 69
2019-10-22 04:00:00 13.9 8 Este 14 Este 0 1010.2 -1.4 68
2019-10-22 03:00:00 13.6 9 Este 18 Este 0 1010.9 -1.3 66
2019-10-22 02:00:00 14.6 6 Este 10 Este 0 1011.2 -1.1 65
2019-10-22 01:00:00 17.4 8 Noroeste 15 Noroeste 0 1011.6 -0.8 56
2019-10-22 00:00:00 17.6 8 Noroeste 17 Noroeste 0 1012.2 -0.2 53
2019-10-21 23:00:00 17.9 7 Noroeste 16 Noroeste 0 1012.3 0.2 50
2019-10-21 22:00:00 17.8 8 Noroeste 15 Noroeste 0 1012.4 0.6 50
2019-10-21 21:00:00 17.7 9 Noroeste 18 Noroeste 0 1012.4 0.4 53
2019-10-21 20:00:00 17.8 11 Noroeste 19 Noroeste 0 1012.1 0.1 52
2019-10-21 19:00:00 18.8 11 Noroeste 23 Noroeste 0 1011.8 -0.5 49
2019-10-21 18:00:00 19.3 15 Noroeste 28 Noroeste 0 1012 -0.7 47
2019-10-21 17:00:00 19.4 17 Noroeste 25 Oeste 0 1012 -1.4 49
2019-10-21 16:00:00 19.4 14 Noroeste 22 Noroeste 0 1012.3 -1.8 54
2019-10-21 15:00:00 19.6 12 Noroeste 18 Noroeste 0 1012.7 -1.5 46
2019-10-21 14:00:00 19.2 11 Noroeste 18 Noroeste 0 1013.4 -0.8 49
2019-10-21 13:00:00 18.5 8 Noroeste 12 Oeste 0 1014.1 0.5 58
2019-10-21 12:00:00 18.2 2 Nordeste 11 Nordeste 0 1014.2 1.1 64
2019-10-21 11:00:00 17 5 Este 11 Este 0 1014.2 1.3 71
2019-10-21 10:00:00 13.7 6 Este 11 Este 0 1013.6 0.9 80
2019-10-21 09:00:00 12.6 5 Este 9 Este 0 1013.1 0.5 82
2019-10-21 08:00:00 13 7 Este 13 Este 0 1012.9 0.4 81
2019-10-21 07:00:00 13.4 2 Nordeste 9 Nordeste 0 1012.7 0.1 81
2019-10-21 06:00:00 13.3 5 Este 13 Sudeste 0 1012.6 -0.1 79
2019-10-21 05:00:00 13.6 8 Este 13 Este 0 1012.5 -0.2 78
2019-10-21 04:00:00 13.8 9 Este 16 Sudeste 0 1012.6 -0.3 77
2019-10-21 03:00:00 14.1 7 Este 14 Sudeste 0 1012.7 -0.5 74
2019-10-21 02:00:00 14.6 8 Este 15 Sudeste 0 1012.7 -0.2 74
2019-10-21 01:00:00 16.7 0 Calma 12 Oeste 0 1012.9 0.1 68
2019-10-21 00:00:00 17.8 6 Oeste 20 Norte 0 1013.2 0.9 62
2019-10-20 23:00:00 17.8 11 Oeste 18 Oeste 0 1012.9 0.8 62
2019-10-20 22:00:00 17.5 10 Oeste 23 Noroeste 0 1012.8 1 60
2019-10-20 21:00:00 17.7 12 Oeste 24 Oeste 0 1012.3 0.6 58
2019-10-20 20:00:00 17.7 13 Oeste 25 Oeste 0 1012.1 0.2 56
2019-10-20 19:00:00 18.7 13 Oeste 24 Oeste 0 1011.8 0.3 57
2019-10-20 18:00:00 18.9 13 Oeste 22 Oeste 0 1011.7 0.2 54
2019-10-20 17:00:00 18.6 12 Oeste 23 Oeste 0 1011.9 -0.1 54
2019-10-20 16:00:00 18.4 12 Oeste 22 Oeste 0 1011.5 -0.2 55
2019-10-20 15:00:00 18.7 12 Oeste 25 Noroeste 0 1011.5 -0.1 57
2019-10-20 14:00:00 18.1 12 Oeste 23 Oeste 0 1012 0.7 61
2019-10-20 13:00:00 17.6 12 Oeste 23 Oeste 0 1011.7 1.2 62
2019-10-20 12:00:00 17.5 13 Noroeste 24 Noroeste 0 1011.6 2.1 62
2019-10-20 11:00:00 17.4 8 Noroeste 23 Noroeste 0 1011.3 2.3 67
2019-10-20 10:00:00 16.4 5 Norte 17 Noroeste 0 1010.5 1.8 73
2019-10-20 09:00:00 16 4 Norte 20 Norte 0 1009.5 1.6 72
2019-10-20 08:00:00 16.7 10 Noroeste 20 Noroeste 0 1009 1.4 65
2019-10-20 07:00:00 16.9 7 Norte 18 Norte 0 1008.7 0.7 66
2019-10-20 06:00:00 16 3 Nordeste 23 Noroeste 0 1007.9 -0.5 80
2019-10-20 05:00:00 16.5 7 Noroeste 15 Noroeste 0.1 1007.6 -0.2 77
2019-10-20 04:00:00 16.5 2 Oeste 27 Noroeste 0.3 1008 -0.1 74
2019-10-20 03:00:00 17.5 16 Noroeste 33 Noroeste 0 1008.4 1.2 73
2019-10-20 02:00:00 17.9 16 Noroeste 36 Noroeste 0 1007.8 1.1 65
2019-10-20 01:00:00 18.5 20 Noroeste 34 Noroeste 0 1008.1 2.3 71
2019-10-20 00:00:00 18.3 13 Noroeste 29 Noroeste 0 1007.2 1.2 82
2019-10-19 23:00:00 18.4 14 Oeste 41 Oeste 1 1006.7 0.7 94
2019-10-19 22:00:00 19.3 15 Oeste 49 Oeste 3.4 1005.8 -0.6 94
2019-10-19 21:00:00 21.4 19 Sudoeste 37 Sudoeste 0 1006 -0.4 86
2019-10-19 20:00:00 21.4 14 Sudoeste 33 Sur 0 1006 -0.9 86
2019-10-19 19:00:00 22.1 16 Sudoeste 32 Sudoeste 0 1006.4 -1.1 79
2019-10-19 18:00:00 23.4 14 Sudoeste 34 Sudoeste 0 1006.4 -2 72
2019-10-19 17:00:00 23 15 Sudoeste 39 Sudoeste 0 1006.9 -2.6 71
2019-10-19 16:00:00 23.2 17 Sudoeste 29 Sudoeste 0 1007.5 -2.5 76
2019-10-19 15:00:00 21.3 10 Sudoeste 20 Sudoeste 2 1008.4 -1.7 89
2019-10-19 14:00:00 21.1 7 Sudoeste 28 Sur 0.5 1009.5 -0.9 82
2019-10-19 13:00:00 21.7 11 Sudoeste 28 Sur 0 1010 -0.6 72
2019-10-19 12:00:00 22.3 10 Sur 22 Sur 0 1010.1 -0.2 69
2019-10-19 11:00:00 20.6 5 Sur 13 Sur 0 1010.4 0 72
2019-10-19 10:00:00 18.8 2 Sudeste 11 Sudeste 0 1010.6 -0.2 76
2019-10-19 09:00:00 17.8 6 Sudeste 13 Sudeste 0 1010.3 -0.3 80
2019-10-19 08:00:00 18.3 5 Sudeste 9 Sudeste 0 1010.4 -0.3 78
2019-10-19 07:00:00 18.8 0 Calma 10 Noroeste 0 1010.8 -0.6 69
2019-10-19 06:00:00 18.6 4 Noroeste 8 Noroeste 0 1010.6 -1.4 69
2019-10-19 05:00:00 18.8 3 Oeste 13 Noroeste 0 1010.7 -1.7 69
2019-10-19 04:00:00 18.5 5 Oeste 14 Oeste 0 1011.4 -1.6 80
2019-10-19 03:00:00 18.8 6 Oeste 13 Oeste 0 1012 -1.2 84
2019-10-19 02:00:00 19.3 8 Oeste 14 Oeste 0 1012.4 -1.1 87
2019-10-19 01:00:00 19.5 8 Oeste 15 Noroeste 0 1013 -0.4 88
2019-10-19 00:00:00 20 8 Oeste 16 Oeste 0 1013.2 -0.2 90
2019-10-18 23:00:00 20.4 7 Oeste 12 Sudoeste 0 1013.5 0.4 90
2019-10-18 22:00:00 20.6 6 Sudoeste 11 Sudoeste 0 1013.4 0 89
2019-10-18 21:00:00 20.7 9 Oeste 13 Oeste 0 1013.4 -0.3 87
2019-10-18 20:00:00 21.1 9 Oeste 17 Oeste 0 1013.1 -0.9 83
2019-10-18 19:00:00 22 10 Oeste 21 Oeste 0 1013.4 -1.1 76
2019-10-18 18:00:00 21.9 10 Oeste 23 Oeste 0 1013.7 -1.2 76
2019-10-18 17:00:00 22.3 14 Oeste 22 Oeste 0 1014 -1.9 74
2019-10-18 16:00:00 22.5 15 Oeste 22 Oeste 0 1014.5 -2.2 73
2019-10-18 15:00:00 23.4 13 Oeste 22 Oeste 0 1014.9 -2 68
2019-10-18 14:00:00 22.7 9 Oeste 16 Noroeste 0 1015.9 -0.9 68
2019-10-18 13:00:00 22 5 Noroeste 15 Noroeste 0 1016.7 0.4 70
2019-10-18 12:00:00 21.2 6 Noroeste 15 Noroeste 0 1016.9 1.3 76
2019-10-18 11:00:00 20.1 3 Noroeste 8 Noroeste 0 1016.8 1.3 87
2019-10-18 10:00:00 19.6 0 Calma 5 Sudeste 0 1016.3 0.8 92
2019-10-18 09:00:00 16.4 2 Sudeste 6 Sudeste 0 1015.6 0.3 92
2019-10-18 08:00:00 17.7 0 Calma 3 Norte 0 1015.5 0 92
2019-10-18 07:00:00 16.7 2 Sudeste 4 Sudeste 0 1015.5 -0.4 91
2019-10-18 06:00:00 16.7 3 Sudeste 4 Sudeste 0 1015.3 -1 91
2019-10-18 05:00:00 16.7 3 Sudeste 6 Este 0 1015.5 -1 89
2019-10-18 04:00:00 16.8 4 Sudeste 6 Sudeste 0 1015.9 -1 88
2019-10-18 03:00:00 17.2 3 Sudeste 7 Sudeste 0 1016.3 -0.9 87
2019-10-18 02:00:00 19.2 0 Calma 5 Noroeste 0 1016.5 -0.2 88
2019-10-18 01:00:00 19.6 2 Oeste 9 Noroeste 0 1016.9 0.1 87
2019-10-18 00:00:00 19.7 6 Noroeste 13 Noroeste 0 1017.2 0.6 85
2019-10-17 23:00:00 19.8 7 Noroeste 19 Noroeste 0 1016.7 0.8 82
2019-10-17 22:00:00 20 12 Noroeste 21 Noroeste 0 1016.8 1 78
2019-10-17 21:00:00 19.8 14 Oeste 23 Noroeste 0 1016.6 0.8 76
2019-10-17 20:00:00 19.8 13 Oeste 22 Noroeste 0 1015.9 -0.1 74
2019-10-17 19:00:00 20.2 13 Oeste 23 Oeste 0 1015.8 -0.7 75
2019-10-17 18:00:00 20.6 14 Oeste 26 Noroeste 0 1015.8 -1.2 65
2019-10-17 17:00:00 21.1 17 Oeste 28 Oeste 0 1016 -1.7 68
2019-10-17 16:00:00 20.7 15 Oeste 25 Oeste 0 1016.5 -1.6 71
2019-10-17 15:00:00 20.6 13 Oeste 24 Oeste 0 1017 -1.1 64
2019-10-17 14:00:00 20.4 11 Oeste 18 Oeste 0 1017.7 -0.3 66
2019-10-17 13:00:00 19.7 10 Oeste 17 Oeste 0 1018.1 0.6 70
2019-10-17 12:00:00 19.2 5 Noroeste 9 Oeste 0 1018.1 1.5 73
2019-10-17 11:00:00 18.6 2 Norte 7 Este 0 1018 1.7 75
2019-10-17 10:00:00 16 0 Calma 6 Este 0 1017.5 1.5 82
2019-10-17 09:00:00 14 3 Este 7 Sudeste 0 1016.6 1 83
2019-10-17 08:00:00 14.3 2 Sudeste 5 Sudeste 0 1016.3 0.7 81
2019-10-17 07:00:00 14.6 3 Sudeste 6 Sur 0 1016 0.2 79
2019-10-17 06:00:00 14.5 2 Sudeste 11 Sudeste 0 1015.6 -0.4 77
2019-10-17 05:00:00 14.7 5 Sudeste 11 Sudeste 0 1015.6 -0.6 74
2019-10-17 04:00:00 14.7 4 Sudeste 12 Sudeste 0 1015.8 -0.9 72
2019-10-17 03:00:00 14.7 6 Sudeste 13 Sudeste 0 1016 -0.5 72
2019-10-17 02:00:00 16.2 3 Este 6 Este 0 1016.2 -0.4 71
2019-10-17 01:00:00 16.6 3 Este 5 Este 0 1016.7 0.6 69
2019-10-17 00:00:00 17.3 3 Sudeste 16 Noroeste 0 1016.5 0.7 68
2019-10-16 23:00:00 19.1 8 Noroeste 19 Noroeste 0 1016.6 1.3 64
2019-10-16 22:00:00 19.5 9 Noroeste 24 Noroeste 0 1016.1 1 59
2019-10-16 21:00:00 19.6 12 Noroeste 25 Noroeste 0 1015.8 0.7 56
2019-10-16 20:00:00 19.5 12 Noroeste 24 Noroeste 0 1015.3 0.1 56
2019-10-16 19:00:00 20.2 15 Oeste 24 Oeste 0 1015.1 -0.7 55
2019-10-16 18:00:00 20.3 15 Oeste 25 Oeste 0 1015.1 -1.5 54
2019-10-16 17:00:00 20.4 16 Oeste 26 Oeste 0 1015.2 -2.3 55
2019-10-16 16:00:00 20 15 Oeste 23 Oeste 0 1015.8 -2.2 61
2019-10-16 15:00:00 20.2 10 Oeste 17 Noroeste 0 1016.6 -1.8 55
2019-10-16 14:00:00 19.4 10 Oeste 16 Noroeste 0 1017.5 -0.7 55
2019-10-16 13:00:00 20 4 Noroeste 10 Noroeste 0 1018 0.4 50
2019-10-16 12:00:00 17.5 6 Noroeste 11 Este 0 1018.4 1.2 60
2019-10-16 11:00:00 16 5 Este 11 Este 0 1018.2 1.3 62
2019-10-16 10:00:00 13.4 3 Este 9 Este 0 1017.6 0.9 75
2019-10-16 09:00:00 12.9 0 Calma 6 Este 0 1017.2 0.5 75
2019-10-16 08:00:00 13 3 Este 9 Este 0 1016.9 0 77
2019-10-16 07:00:00 13.5 2 Este 11 Nordeste 0 1016.7 -0.7 74
2019-10-16 06:00:00 13.9 6 Este 11 Este 0 1016.7 -1.2 74
2019-10-16 05:00:00 13.7 6 Este 16 Este 0 1016.9 -1.2 74
2019-10-16 04:00:00 14.5 7 Este 11 Este 0 1017.4 -0.9 72
2019-10-16 03:00:00 15 6 Este 9 Este 0 1017.9 -0.6 70
2019-10-16 02:00:00 17.7 3 Nordeste 18 Norte 0 1018.1 -0.2 67
2019-10-16 01:00:00 18.2 9 Noroeste 23 Noroeste 0 1018.3 0.6 63
2019-10-16 00:00:00 18.3 11 Noroeste 23 Noroeste 0 1018.5 0.8 59
2019-10-15 23:00:00 18.3 11 Noroeste 20 Noroeste 0 1018.3 1 59
2019-10-15 22:00:00 18.6 8 Noroeste 19 Noroeste 0 1017.7 0.4 59
2019-10-15 21:00:00 18.7 10 Noroeste 20 Noroeste 0 1017.7 0.5 56
2019-10-15 20:00:00 18.9 11 Noroeste 23 Noroeste 0 1017.3 0 54
2019-10-15 19:00:00 19.5 14 Noroeste 24 Oeste 0 1017.3 -0.3 52
2019-10-15 18:00:00 19.3 15 Oeste 26 Oeste 0 1017.2 -1.2 52
2019-10-15 17:00:00 19.4 15 Oeste 24 Oeste 0 1017.3 -1.7 51
2019-10-15 16:00:00 19.4 14 Oeste 24 Oeste 0 1017.6 -1.9 48
2019-10-15 15:00:00 20.1 10 Noroeste 18 Noroeste 0 1018.4 -1.4 41
2019-10-15 14:00:00 19.9 6 Norte 18 Nordeste 0 1019 -0.7 41
2019-10-15 13:00:00 18.4 6 Nordeste 21 Este 0 1019.5 0.5 48
2019-10-15 12:00:00 17.6 5 Nordeste 19 Nordeste 0 1019.8 1.6 57
2019-10-15 11:00:00 15.7 8 Nordeste 22 Nordeste 0 1019.7 1.6 67
2019-10-15 10:00:00 14.3 6 Nordeste 16 Nordeste 0 1019 1.2 77
2019-10-15 09:00:00 13.7 5 Nordeste 14 Nordeste 0 1018.2 0.4 78
2019-10-15 08:00:00 14.1 6 Nordeste 14 Nordeste 0 1018.1 0.4 77
2019-10-15 07:00:00 14.4 4 Nordeste 10 Norte 0 1017.8 0.1 76
2019-10-15 06:00:00 15 5 Nordeste 17 Norte 0 1017.8 0.1 74
2019-10-15 05:00:00 15.7 8 Nordeste 17 Norte 0 1017.7 -0.1 70
2019-10-15 04:00:00 16.8 8 Norte 21 Norte 0 1017.7 0 68
2019-10-15 03:00:00 18 10 Norte 25 Noroeste 0 1017.7 0 65
2019-10-15 02:00:00 18.5 11 Noroeste 22 Noroeste 0 1017.8 0.5 63
2019-10-15 01:00:00 18.9 9 Noroeste 23 Noroeste 0 1017.7 1 68
2019-10-15 00:00:00 19.3 11 Noroeste 21 Noroeste 0 1017.7 1.6 69
2019-10-14 23:00:00 19.3 12 Noroeste 24 Oeste 0 1017.3 1.6 74
2019-10-14 22:00:00 19.4 15 Noroeste 36 Oeste 0 1016.7 1.3 75
2019-10-14 21:00:00 20 21 Oeste 36 Oeste 0 1016.1 1 77
2019-10-14 20:00:00 20.5 17 Oeste 33 Oeste 0 1015.7 0.8 65
2019-10-14 19:00:00 21.3 19 Oeste 38 Oeste 0 1015.4 0.7 62
2019-10-14 18:00:00 21.9 26 Oeste 41 Oeste 0 1015.1 0.5 60
2019-10-14 17:00:00 21.6 21 Oeste 36 Oeste 0 1014.9 0 57
2019-10-14 16:00:00 21.5 18 Oeste 31 Oeste 0 1014.7 -0.1 63
2019-10-14 15:00:00 21.2 20 Oeste 29 Oeste 0 1014.6 0.1 72
2019-10-14 14:00:00 20.9 15 Oeste 33 Oeste 0 1014.9 0.7 78
2019-10-14 13:00:00 21 14 Oeste 25 Oeste 0 1014.8 1.4 73
2019-10-14 12:00:00 20.7 13 Oeste 25 Oeste 0 1014.5 2.2 74
2019-10-14 11:00:00 20.1 15 Oeste 26 Oeste 0 1014.2 2.3 78
2019-10-14 10:00:00 19.9 18 Oeste 30 Oeste 0 1013.4 1.6 84
2019-10-14 09:00:00 19.3 14 Oeste 25 Oeste 0 1012.3 1 89
2019-10-14 08:00:00 19.4 15 Oeste 40 Oeste 2.4 1011.9 0.5 92
2019-10-14 07:00:00 19.9 14 Sudoeste 36 Oeste 1.8 1011.8 1.3 85
2019-10-14 06:00:00 20.8 12 Sudoeste 30 Sudoeste 0 1011.3 0.9 83
2019-10-14 05:00:00 20.9 16 Sudoeste 31 Sudoeste 0 1011.4 1.1 86
2019-10-14 04:00:00 20.6 15 Sudoeste 28 Sudoeste 0 1010.5 0.2 91
2019-10-14 03:00:00 20.4 4 Sur 11 Sur 0 1010.4 0.1 91
2019-10-14 02:00:00 20.3 0 Calma 5 Oeste 0 1010.3 0.9 91
2019-10-14 01:00:00 20.6 3 Oeste 15 Oeste 0 1010.3 1.1 91
2019-10-14 00:00:00 20.7 10 Oeste 17 Oeste 0 1010.3 1.4 87